createdAt,value
2023-01-27T00:01:51.285Z,99617.34
2023-01-27T00:03:54.314Z,99615.69
2023-01-27T00:05:58.955Z,99611.91
2023-01-27T00:08:03.395Z,99617.34
2023-01-27T00:10:07.555Z,99607.78
2023-01-27T00:12:38.286Z,99609.41
2023-01-27T00:14:41.155Z,99610.94
2023-01-27T00:16:43.996Z,99614.25
2023-01-27T00:18:47.125Z,99615.69
2023-01-27T00:21:08.580Z,99616.38
2023-01-27T00:23:36.706Z,99611.63
2023-01-27T00:25:39.676Z,99618.72
2023-01-27T00:27:42.659Z,99621.19
2023-01-27T00:29:45.516Z,99613.41
2023-01-27T00:32:07.041Z,99620.66
2023-01-27T00:34:10.092Z,99618.72
2023-01-27T00:36:14.926Z,99614.09
2023-01-27T00:38:19.275Z,99606.47
2023-01-27T00:40:22.194Z,99610.53
2023-01-27T00:42:25.159Z,99614.34
2023-01-27T00:44:28.164Z,99614.03
2023-01-27T00:46:32.957Z,99610.69
2023-01-27T00:48:37.285Z,99612.22
2023-01-27T00:50:40.163Z,99621.78
2023-01-27T00:52:43.381Z,99629.59
2023-01-27T00:54:47.935Z,99616.81
2023-01-27T00:56:50.958Z,99618.34
2023-01-27T00:58:53.877Z,99615.81
2023-01-27T01:00:59.709Z,99619.13
2023-01-27T01:03:02.612Z,99618.19
2023-01-27T01:05:06.225Z,99616.38
2023-01-27T01:07:09.094Z,99619.53
2023-01-27T01:09:12.114Z,99611.91
2023-01-27T01:11:19.075Z,99622.03
2023-01-27T01:13:22.002Z,99622.72
2023-01-27T01:15:26.160Z,99625.63
2023-01-27T01:17:29.067Z,99610.34
2023-01-27T01:19:33.675Z,99619.06
2023-01-27T01:21:38.139Z,99623.66
2023-01-27T01:23:43.910Z,99622.72
2023-01-27T01:25:53.665Z,99610.47
2023-01-27T01:27:58.025Z,99615.47
2023-01-27T01:30:01.547Z,99610.34
2023-01-27T01:32:04.925Z,99614.47
2023-01-27T01:34:07.838Z,99617.78
2023-01-27T01:36:12.315Z,99616.16
2023-01-27T01:38:15.399Z,99614.19
2023-01-27T01:40:18.954Z,99621.59
2023-01-27T01:42:21.854Z,99622.94
2023-01-27T01:44:28.285Z,99617.66
2023-01-27T01:46:31.301Z,99617.78
2023-01-27T01:48:36.848Z,99617.50
2023-01-27T01:50:41.124Z,99618.09
2023-01-27T01:52:44.155Z,99616.44
2023-01-27T01:54:51.227Z,99616.16
2023-01-27T01:56:58.370Z,99615.16
2023-01-27T01:59:07.074Z,99609.50
2023-01-27T02:01:16.454Z,99613.66
2023-01-27T02:03:19.966Z,99608.50
2023-01-27T02:05:27.835Z,99613.50
2023-01-27T02:07:37.891Z,99611.03
2023-01-27T02:09:40.714Z,99604.91
2023-01-27T02:11:43.874Z,99605.75
2023-01-27T02:13:47.375Z,99599.31
2023-01-27T02:15:53.048Z,99599.78
2023-01-27T02:17:59.474Z,99591.97
2023-01-27T02:20:09.545Z,99595.00
2023-01-27T02:22:20.966Z,99593.50
2023-01-27T02:24:33.813Z,99590.03
2023-01-27T02:26:41.798Z,99594.34
2023-01-27T02:28:45.696Z,99594.19
2023-01-27T02:30:48.921Z,99593.13
2023-01-27T02:32:52.075Z,99580.28
2023-01-27T02:34:56.918Z,99590.63
2023-01-27T02:37:05.104Z,99588.38
2023-01-27T02:39:10.914Z,99583.63
2023-01-27T02:41:20.873Z,99586.09
2023-01-27T02:43:25.635Z,99589.56
2023-01-27T02:45:29.475Z,99596.97
2023-01-27T02:47:32.356Z,99587.78
2023-01-27T02:49:35.399Z,99592.75
2023-01-27T02:51:39.796Z,99583.00
2023-01-27T02:53:43.835Z,99595.09
2023-01-27T02:55:47.035Z,99584.13
2023-01-27T02:57:50.034Z,99595.09
2023-01-27T03:00:15.367Z,99588.28
2023-01-27T03:02:30.758Z,99581.88
2023-01-27T03:04:33.837Z,99591.31
2023-01-27T03:06:39.657Z,99590.34
2023-01-27T03:08:43.000Z,99587.38
2023-01-27T03:10:51.093Z,99590.69
2023-01-27T03:12:57.114Z,99590.69
2023-01-27T03:15:18.517Z,99598.50
2023-01-27T03:17:41.423Z,99592.66
2023-01-27T03:19:46.224Z,99601.88
2023-01-27T03:21:53.091Z,99601.41
2023-01-27T03:23:57.344Z,99605.78
2023-01-27T03:26:00.238Z,99609.88
2023-01-27T03:28:03.274Z,99604.00
2023-01-27T03:30:24.915Z,99598.25
2023-01-27T03:32:38.399Z,99611.31
2023-01-27T03:35:08.396Z,99609.00
2023-01-27T03:37:31.083Z,99612.06
2023-01-27T03:39:52.495Z,99610.44
2023-01-27T03:42:14.384Z,99613.59
2023-01-27T03:44:36.570Z,99611.06
2023-01-27T03:46:39.674Z,99608.91
2023-01-27T03:48:44.202Z,99607.78
2023-01-27T03:50:53.480Z,99614.28
2023-01-27T03:53:05.167Z,99619.69
2023-01-27T03:55:09.613Z,99616.91
2023-01-27T03:57:12.606Z,99620.69
2023-01-27T03:59:15.795Z,99614.88
2023-01-27T04:01:20.471Z,99617.03
2023-01-27T04:03:43.169Z,99616.06
2023-01-27T04:06:05.964Z,99623.75
2023-01-27T04:08:09.605Z,99620.84
2023-01-27T04:10:12.522Z,99614.88
2023-01-27T04:12:15.474Z,99612.44
2023-01-27T04:14:18.757Z,99612.75
2023-01-27T04:16:29.193Z,99611.91
2023-01-27T04:18:31.994Z,99609.94
2023-01-27T04:20:34.914Z,99607.31
2023-01-27T04:22:40.155Z,99612.50
2023-01-27T04:24:43.402Z,99615.72
2023-01-27T04:26:47.513Z,99612.44
2023-01-27T04:28:50.595Z,99613.06
2023-01-27T04:30:54.416Z,99618.63
2023-01-27T04:32:57.362Z,99623.06
2023-01-27T04:35:00.456Z,99627.25
2023-01-27T04:37:03.904Z,99632.69
2023-01-27T04:39:09.477Z,99631.00
2023-01-27T04:41:12.043Z,99631.47
2023-01-27T04:43:14.954Z,99630.84
2023-01-27T04:45:17.904Z,99628.81
2023-01-27T04:47:20.754Z,99622.94
2023-01-27T04:49:23.907Z,99630.31
2023-01-27T04:51:26.903Z,99627.16
2023-01-27T04:53:29.883Z,99621.72
2023-01-27T04:55:34.418Z,99620.06
2023-01-27T04:57:37.794Z,99623.91
2023-01-27T04:59:40.624Z,99623.38
2023-01-27T05:01:43.538Z,99623.16
2023-01-27T05:03:46.563Z,99624.94
2023-01-27T05:05:49.540Z,99631.59
2023-01-27T05:07:52.434Z,99627.56
2023-01-27T05:09:55.404Z,99616.00
2023-01-27T05:11:59.704Z,99618.78
2023-01-27T05:14:02.755Z,99610.88
2023-01-27T05:16:08.372Z,99604.06
2023-01-27T05:18:11.362Z,99614.25
2023-01-27T05:20:14.358Z,99611.47
2023-01-27T05:22:18.398Z,99614.78
2023-01-27T05:24:21.322Z,99607.22
2023-01-27T05:26:26.384Z,99618.25
2023-01-27T05:28:30.837Z,99613.09
2023-01-27T05:30:33.817Z,99613.41
2023-01-27T05:32:36.754Z,99613.72
2023-01-27T05:34:39.674Z,99619.06
2023-01-27T05:36:42.794Z,99625.00
2023-01-27T05:38:46.924Z,99620.22
2023-01-27T05:40:49.815Z,99620.47
2023-01-27T05:42:52.766Z,99624.41
2023-01-27T05:44:57.075Z,99621.75
2023-01-27T05:47:00.040Z,99634.38
2023-01-27T05:49:07.128Z,99626.06
2023-01-27T05:51:13.565Z,99632.47
2023-01-27T05:53:19.034Z,99633.00
2023-01-27T05:55:22.521Z,99629.00
2023-01-27T05:57:25.435Z,99634.69
2023-01-27T05:59:28.595Z,99642.81
2023-01-27T06:01:34.593Z,99642.38
2023-01-27T06:03:38.358Z,99631.81
2023-01-27T06:05:50.482Z,99643.88
2023-01-27T06:07:53.435Z,99639.72
2023-01-27T06:09:56.404Z,99644.16
2023-01-27T06:11:59.554Z,99646.66
2023-01-27T06:14:02.584Z,99650.13
2023-01-27T06:16:07.723Z,99653.31
2023-01-27T06:18:12.638Z,99657.91
2023-01-27T06:20:16.114Z,99662.34
2023-01-27T06:22:18.976Z,99667.63
2023-01-27T06:24:21.945Z,99668.47
2023-01-27T06:26:25.264Z,99676.97
2023-01-27T06:28:29.866Z,99676.56
2023-01-27T06:30:33.634Z,99675.16
2023-01-27T06:32:36.705Z,99671.28
2023-01-27T06:34:41.315Z,99678.63
2023-01-27T06:36:45.035Z,99680.00
2023-01-27T06:38:48.097Z,99680.00
2023-01-27T06:40:51.074Z,99680.72
2023-01-27T06:42:54.035Z,99689.88
2023-01-27T06:44:56.984Z,99690.59
2023-01-27T06:46:59.854Z,99683.38
2023-01-27T06:49:03.180Z,99687.81
2023-01-27T06:51:07.680Z,99688.66
2023-01-27T06:53:10.988Z,99693.41
2023-01-27T06:55:13.836Z,99692.03
2023-01-27T06:57:16.823Z,99698.94
2023-01-27T06:59:19.674Z,99691.03
2023-01-27T07:01:22.786Z,99695.78
2023-01-27T07:03:26.120Z,99695.25
2023-01-27T07:05:29.102Z,99700.63
2023-01-27T07:07:33.506Z,99694.78
2023-01-27T07:09:51.476Z,99698.47
2023-01-27T07:11:55.193Z,99686.84
2023-01-27T07:13:58.123Z,99696.94
2023-01-27T07:16:01.355Z,99699.22
2023-01-27T07:18:05.053Z,99705.31
2023-01-27T07:20:12.257Z,99690.06
2023-01-27T07:22:15.474Z,99691.44
2023-01-27T07:24:19.908Z,99692.41
2023-01-27T07:26:25.254Z,99687.28
2023-01-27T07:28:28.317Z,99686.16
2023-01-27T07:30:32.235Z,99694.09
2023-01-27T07:32:35.564Z,99696.25
2023-01-27T07:34:38.516Z,99697.69
2023-01-27T07:36:41.363Z,99701.16
2023-01-27T07:38:44.395Z,99707.44
2023-01-27T07:40:48.836Z,99704.78
2023-01-27T07:42:51.805Z,99703.53
2023-01-27T07:44:55.864Z,99710.03
2023-01-27T07:46:59.992Z,99717.78
2023-01-27T07:49:02.975Z,99715.00
2023-01-27T07:51:05.955Z,99714.03
2023-01-27T07:53:09.522Z,99707.50
2023-01-27T07:55:12.797Z,99709.81
2023-01-27T07:57:17.364Z,99709.41
2023-01-27T07:59:20.434Z,99714.56
2023-01-27T08:01:23.675Z,99708.31
2023-01-27T08:03:27.810Z,99706.88
2023-01-27T08:05:34.474Z,99698.53
2023-01-27T08:07:37.556Z,99699.91
2023-01-27T08:09:40.395Z,99711.44
2023-01-27T08:11:43.394Z,99693.63
2023-01-27T08:13:47.774Z,99699.75
2023-01-27T08:15:56.454Z,99700.00
2023-01-27T08:17:59.890Z,99700.16
2023-01-27T08:20:03.034Z,99697.50
2023-01-27T08:22:05.914Z,99707.91
2023-01-27T08:24:10.659Z,99700.38
2023-01-27T08:26:13.663Z,99699.25
2023-01-27T08:28:16.625Z,99703.63
2023-01-27T08:30:22.113Z,99704.78
2023-01-27T08:32:24.723Z,99713.75
2023-01-27T08:34:27.594Z,99706.94
2023-01-27T08:36:30.588Z,99711.44
2023-01-27T08:38:34.855Z,99712.75
2023-01-27T08:40:38.960Z,99710.75
2023-01-27T08:42:41.894Z,99715.78
2023-01-27T08:44:44.875Z,99715.56
2023-01-27T08:46:49.233Z,99717.16
2023-01-27T08:48:52.248Z,99717.69
2023-01-27T08:50:55.794Z,99722.38
2023-01-27T08:52:59.514Z,99718.44
2023-01-27T08:55:02.384Z,99716.41
2023-01-27T08:57:05.397Z,99721.44
2023-01-27T08:59:08.236Z,99718.19
2023-01-27T09:01:11.394Z,99723.81
2023-01-27T09:03:16.396Z,99725.59
2023-01-27T09:05:20.278Z,99727.66
2023-01-27T09:07:23.211Z,99728.41
2023-01-27T09:09:26.023Z,99729.53
2023-01-27T09:11:28.925Z,99731.47
2023-01-27T09:13:31.875Z,99726.88
2023-01-27T09:15:36.117Z,99737.84
2023-01-27T09:17:39.164Z,99738.06
2023-01-27T09:19:43.513Z,99729.97
2023-01-27T09:21:46.480Z,99744.25
2023-01-27T09:23:50.126Z,99748.31
2023-01-27T09:25:53.115Z,99750.72
2023-01-27T09:27:56.759Z,99750.56
2023-01-27T09:29:59.685Z,99753.72
2023-01-27T09:32:02.661Z,99754.78
2023-01-27T09:34:05.588Z,99743.47
2023-01-27T09:36:15.074Z,99751.97
2023-01-27T09:38:21.379Z,99754.63
2023-01-27T09:40:37.034Z,99753.34
2023-01-27T09:42:54.853Z,99757.50
2023-01-27T09:45:26.805Z,99761.13
2023-01-27T09:47:41.955Z,99760.44
2023-01-27T09:50:01.026Z,99765.03
2023-01-27T09:52:45.495Z,99764.66
2023-01-27T09:55:02.387Z,99764.34
2023-01-27T09:57:15.045Z,99764.34
2023-01-27T09:59:34.766Z,99762.53
2023-01-27T10:01:57.595Z,99758.53
2023-01-27T10:04:25.821Z,99755.72
2023-01-27T10:06:48.254Z,99757.41
2023-01-27T10:09:29.394Z,99753.88
2023-01-27T10:11:40.857Z,99752.22
2023-01-27T10:13:55.970Z,99752.34
2023-01-27T10:16:13.856Z,99752.03
2023-01-27T10:18:31.294Z,99751.06
2023-01-27T10:20:40.268Z,99745.16
2023-01-27T10:22:52.737Z,99747.78
2023-01-27T10:25:09.594Z,99744.81
2023-01-27T10:27:18.053Z,99747.75
2023-01-27T10:29:25.671Z,99746.16
2023-01-27T10:31:36.919Z,99740.13
2023-01-27T10:33:49.008Z,99747.13
2023-01-27T10:35:54.044Z,99745.50
2023-01-27T10:38:08.184Z,99745.56
2023-01-27T10:40:21.039Z,99744.72
2023-01-27T10:42:33.884Z,99745.84
2023-01-27T10:44:50.875Z,99746.41
2023-01-27T10:47:05.930Z,99746.00
2023-01-27T10:49:13.193Z,99754.22
2023-01-27T10:51:23.185Z,99743.34
2023-01-27T10:53:33.873Z,99747.75
2023-01-27T10:55:45.319Z,99747.88
2023-01-27T10:57:54.158Z,99746.53
2023-01-27T11:00:51.435Z,99743.78
2023-01-27T11:02:37.677Z,99741.19
2023-01-27T11:04:44.498Z,99752.84
2023-01-27T11:06:48.836Z,99748.59
2023-01-27T11:08:54.455Z,99743.47
2023-01-27T11:11:22.433Z,99736.72
2023-01-27T11:13:25.356Z,99738.31
2023-01-27T11:15:31.917Z,99732.09
2023-01-27T11:17:41.284Z,99736.78
2023-01-27T11:19:51.434Z,99733.69
2023-01-27T11:22:07.004Z,99738.41
2023-01-27T11:24:21.972Z,99737.66
2023-01-27T11:26:34.876Z,99737.56
2023-01-27T11:28:46.037Z,99732.88
2023-01-27T11:30:56.378Z,99735.63
2023-01-27T11:33:05.404Z,99733.88
2023-01-27T11:35:11.168Z,99737.19
2023-01-27T11:37:20.316Z,99738.84
2023-01-27T11:39:23.837Z,99738.84
2023-01-27T11:41:28.844Z,99742.78
2023-01-27T11:43:32.355Z,99739.19
2023-01-27T11:45:36.678Z,99733.81
2023-01-27T11:47:42.083Z,99739.81
2023-01-27T11:49:49.194Z,99739.81
2023-01-27T11:51:52.357Z,99742.78
2023-01-27T11:54:04.883Z,99745.75
2023-01-27T11:56:16.194Z,99740.44
2023-01-27T11:58:26.281Z,99738.19
2023-01-27T12:00:35.354Z,99742.41
2023-01-27T12:02:45.016Z,99749.44
2023-01-27T12:04:55.526Z,99746.63
2023-01-27T12:07:04.924Z,99747.91
2023-01-27T12:09:27.891Z,99737.13
2023-01-27T12:11:32.250Z,99743.91
2023-01-27T12:13:36.712Z,99742.88
2023-01-27T12:15:49.715Z,99742.25
2023-01-27T12:17:56.928Z,99746.56
2023-01-27T12:20:04.124Z,99737.66
2023-01-27T12:22:11.718Z,99736.38
2023-01-27T12:24:25.022Z,99740.59
2023-01-27T12:26:34.204Z,99740.75
2023-01-27T12:28:42.394Z,99732.06
2023-01-27T12:30:48.245Z,99734.25
2023-01-27T12:32:52.355Z,99736.38
2023-01-27T12:34:59.154Z,99729.72
2023-01-27T12:37:04.275Z,99728.44
2023-01-27T12:39:24.214Z,99726.31
2023-01-27T12:41:28.668Z,99735.91
2023-01-27T12:43:31.746Z,99738.53
2023-01-27T12:45:38.505Z,99730.78
2023-01-27T12:47:42.055Z,99732.53
2023-01-27T12:49:45.124Z,99732.06
2023-01-27T12:51:54.269Z,99735.53
2023-01-27T12:54:16.205Z,99739.19
2023-01-27T12:56:23.161Z,99741.50
2023-01-27T12:58:35.566Z,99733.72
2023-01-27T13:00:46.514Z,99737.06
2023-01-27T13:02:49.598Z,99736.53
2023-01-27T13:04:54.938Z,99738.25
2023-01-27T13:07:05.614Z,99745.66
2023-01-27T13:09:24.681Z,99738.47
2023-01-27T13:11:37.803Z,99752.00
2023-01-27T13:13:49.241Z,99752.53
2023-01-27T13:15:56.580Z,99756.53
2023-01-27T13:18:00.603Z,99755.41
2023-01-27T13:20:15.541Z,99747.41
2023-01-27T13:22:22.159Z,99761.75
2023-01-27T13:24:33.995Z,99754.34
2023-01-27T13:26:37.994Z,99755.69
2023-01-27T13:28:52.753Z,99752.28
2023-01-27T13:31:03.352Z,99754.41
2023-01-27T13:33:20.084Z,99752.84
2023-01-27T13:35:27.375Z,99747.53
2023-01-27T13:37:35.973Z,99753.97
2023-01-27T13:39:55.073Z,99754.41
2023-01-27T13:42:11.074Z,99749.78
2023-01-27T13:44:25.792Z,99756.94
2023-01-27T13:46:34.463Z,99760.28
2023-01-27T13:48:41.976Z,99754.03
2023-01-27T13:50:48.114Z,99753.63
2023-01-27T13:52:54.159Z,99757.97
2023-01-27T13:54:58.114Z,99767.03
2023-01-27T13:57:12.845Z,99761.91
2023-01-27T13:59:32.436Z,99767.94
2023-01-27T14:01:49.253Z,99768.22
2023-01-27T14:04:18.964Z,99775.28
2023-01-27T14:06:42.718Z,99767.88
2023-01-27T14:08:57.876Z,99762.22
2023-01-27T14:11:13.534Z,99773.44
2023-01-27T14:13:32.464Z,99771.56
2023-01-27T14:15:41.494Z,99766.28
2023-01-27T14:17:52.563Z,99773.84
2023-01-27T14:20:18.004Z,99767.72
2023-01-27T14:22:29.285Z,99763.78
2023-01-27T14:24:40.712Z,99770.97
2023-01-27T14:26:51.745Z,99772.31
2023-01-27T14:29:15.595Z,99778.00
2023-01-27T14:31:21.621Z,99773.25
2023-01-27T14:33:43.014Z,99778.28
2023-01-27T14:35:54.275Z,99775.81
2023-01-27T14:38:07.769Z,99773.47
2023-01-27T14:40:18.315Z,99781.41
2023-01-27T14:42:32.851Z,99783.66
2023-01-27T14:45:01.025Z,99784.66
2023-01-27T14:47:12.434Z,99784.19
2023-01-27T14:49:23.348Z,99785.47
2023-01-27T14:51:39.036Z,99788.72
2023-01-27T14:53:57.325Z,99796.19
2023-01-27T14:56:12.304Z,99792.88
2023-01-27T14:58:34.975Z,99798.16
2023-01-27T15:00:51.431Z,99793.03
2023-01-27T15:03:14.681Z,99793.63
2023-01-27T15:05:27.054Z,99794.47
2023-01-27T15:07:39.367Z,99806.16
2023-01-27T15:09:58.027Z,99799.91
2023-01-27T15:12:25.694Z,99800.88
2023-01-27T15:14:54.830Z,99811.84
2023-01-27T15:17:14.927Z,99812.91
2023-01-27T15:19:45.564Z,99825.19
2023-01-27T15:22:13.034Z,99819.47
2023-01-27T15:24:57.713Z,99817.66
2023-01-27T15:27:02.036Z,99822.97
2023-01-27T15:29:06.119Z,99817.13
2023-01-27T15:31:22.502Z,99821.59
2023-01-27T15:33:49.981Z,99827.84
2023-01-27T15:36:18.316Z,99839.69
2023-01-27T15:38:34.401Z,99839.31
2023-01-27T15:40:51.675Z,99832.91
2023-01-27T15:43:06.961Z,99837.88
2023-01-27T15:45:26.971Z,99829.06
2023-01-27T15:47:32.714Z,99831.38
2023-01-27T15:49:38.153Z,99828.91
2023-01-27T15:51:41.215Z,99837.94
2023-01-27T15:53:49.892Z,99838.09
2023-01-27T15:55:56.431Z,99840.59
2023-01-27T15:58:07.102Z,99844.06
2023-01-27T16:00:26.276Z,99841.28
2023-01-27T16:02:31.484Z,99839.63
2023-01-27T16:04:34.975Z,99846.88
2023-01-27T16:06:47.324Z,99851.00
2023-01-27T16:08:55.696Z,99845.56
2023-01-27T16:11:24.294Z,99850.19
2023-01-27T16:13:28.934Z,99856.75
2023-01-27T16:15:33.923Z,99850.63
2023-01-27T16:17:58.514Z,99852.44
2023-01-27T16:20:23.965Z,99852.44
2023-01-27T16:22:29.024Z,99849.53
2023-01-27T16:24:40.135Z,99850.47
2023-01-27T16:26:49.484Z,99842.03
2023-01-27T16:28:59.923Z,99851.47
2023-01-27T16:31:06.923Z,99852.16
2023-01-27T16:33:17.177Z,99855.75
2023-01-27T16:35:22.555Z,99859.69
2023-01-27T16:37:28.205Z,99858.41
2023-01-27T16:39:43.979Z,99855.50
2023-01-27T16:41:54.037Z,99857.28
2023-01-27T16:44:02.717Z,99862.13
2023-01-27T16:46:05.852Z,99857.66
2023-01-27T16:48:20.967Z,99847.00
2023-01-27T16:50:36.754Z,99846.56
2023-01-27T16:52:42.508Z,99843.56
2023-01-27T16:54:52.706Z,99844.81
2023-01-27T16:56:55.972Z,99841.72
2023-01-27T16:59:02.126Z,99847.16
2023-01-27T17:01:05.209Z,99842.53
2023-01-27T17:03:15.382Z,99845.50
2023-01-27T17:05:20.321Z,99848.16
2023-01-27T17:07:23.638Z,99846.22
2023-01-27T17:09:30.408Z,99842.69
2023-01-27T17:11:35.891Z,99850.09
2023-01-27T17:13:45.406Z,99844.66
2023-01-27T17:15:48.477Z,99847.84
2023-01-27T17:17:52.486Z,99837.84
2023-01-27T17:20:01.037Z,99835.72
2023-01-27T17:22:07.616Z,99841.50
2023-01-27T17:24:25.097Z,99835.88
2023-01-27T17:26:28.436Z,99831.03
2023-01-27T17:28:33.207Z,99828.69
2023-01-27T17:30:40.078Z,99823.66
2023-01-27T17:32:48.352Z,99838.38
2023-01-27T17:34:52.831Z,99840.50
2023-01-27T17:37:15.560Z,99843.13
2023-01-27T17:39:26.241Z,99850.69
2023-01-27T17:41:36.562Z,99851.38
2023-01-27T17:43:41.085Z,99858.63
2023-01-27T17:45:43.894Z,99858.75
2023-01-27T17:47:47.387Z,99871.81
2023-01-27T17:49:51.497Z,99865.41
2023-01-27T17:51:56.520Z,99867.22
2023-01-27T17:53:59.757Z,99872.53
2023-01-27T17:56:12.914Z,99885.03
2023-01-27T17:58:24.769Z,99886.31
2023-01-27T18:00:35.482Z,99879.06
2023-01-27T18:02:44.295Z,99887.28
2023-01-27T18:04:48.221Z,99883.81
2023-01-27T18:06:54.014Z,99887.97
2023-01-27T18:09:00.825Z,99895.19
2023-01-27T18:11:12.645Z,99889.38
2023-01-27T18:13:36.963Z,99887.16
2023-01-27T18:15:47.782Z,99894.09
2023-01-27T18:17:58.737Z,99891.59
2023-01-27T18:20:02.312Z,99896.56
2023-01-27T18:22:13.506Z,99900.38
2023-01-27T18:24:20.761Z,99902.44
2023-01-27T18:26:27.295Z,99908.72
2023-01-27T18:28:34.457Z,99910.53
2023-01-27T18:30:37.550Z,99910.38
2023-01-27T18:32:44.693Z,99909.56
2023-01-27T18:34:49.209Z,99899.00
2023-01-27T18:36:55.101Z,99919.28
2023-01-27T18:38:57.995Z,99910.38
2023-01-27T18:41:11.305Z,99906.91
2023-01-27T18:43:14.292Z,99910.38
2023-01-27T18:45:17.315Z,99918.03
2023-01-27T18:47:26.844Z,99918.88
2023-01-27T18:49:31.406Z,99928.84
2023-01-27T18:51:34.436Z,99926.50
2023-01-27T18:53:37.838Z,99923.47
2023-01-27T18:55:40.807Z,99918.44
2023-01-27T18:57:44.070Z,99918.59
2023-01-27T18:59:46.999Z,99923.59
2023-01-27T19:01:50.171Z,99925.41
2023-01-27T19:03:55.885Z,99923.59
2023-01-27T19:06:00.545Z,99924.56
2023-01-27T19:08:04.163Z,99921.63
2023-01-27T19:10:13.706Z,99918.28
2023-01-27T19:12:16.849Z,99922.34
2023-01-27T19:14:19.799Z,99925.53
2023-01-27T19:16:23.081Z,99920.94
2023-01-27T19:18:30.995Z,99923.31
2023-01-27T19:20:33.882Z,99927.22
2023-01-27T19:22:38.332Z,99924.72
2023-01-27T19:24:41.182Z,99925.25
2023-01-27T19:26:45.346Z,99932.50
2023-01-27T19:28:50.463Z,99932.50
2023-01-27T19:30:53.552Z,99930.00
2023-01-27T19:32:57.480Z,99930.13
2023-01-27T19:35:00.297Z,99931.28
2023-01-27T19:37:03.197Z,99927.22
2023-01-27T19:39:13.815Z,99923.19
2023-01-27T19:41:16.607Z,99926.38
2023-01-27T19:43:19.705Z,99937.78
2023-01-27T19:45:23.205Z,99924.56
2023-01-27T19:47:26.143Z,99935.16
2023-01-27T19:49:29.005Z,99933.88
2023-01-27T19:51:32.435Z,99941.66
2023-01-27T19:53:35.340Z,99940.13
2023-01-27T19:55:39.958Z,99952.38
2023-01-27T19:57:43.381Z,99943.91
2023-01-27T19:59:46.547Z,99945.13
2023-01-27T20:01:49.450Z,99948.03
2023-01-27T20:03:53.466Z,99955.41
2023-01-27T20:05:56.843Z,99951.28
2023-01-27T20:08:00.895Z,99947.78
2023-01-27T20:10:04.205Z,99954.72
2023-01-27T20:12:14.444Z,99960.69
2023-01-27T20:14:20.742Z,99961.69
2023-01-27T20:16:25.888Z,99963.66
2023-01-27T20:18:28.886Z,99958.06
2023-01-27T20:20:32.131Z,99958.06
2023-01-27T20:22:36.951Z,99958.34
2023-01-27T20:24:39.882Z,99957.38
2023-01-27T20:26:42.833Z,99958.63
2023-01-27T20:28:47.745Z,99956.69
2023-01-27T20:30:50.617Z,99961.41
2023-01-27T20:32:56.207Z,99963.78
2023-01-27T20:34:59.642Z,99966.72
2023-01-27T20:37:02.570Z,99965.06
2023-01-27T20:39:05.448Z,99958.63
2023-01-27T20:41:09.315Z,99960.47
2023-01-27T20:43:14.411Z,99965.28
2023-01-27T20:45:21.035Z,99971.03
2023-01-27T20:47:24.185Z,99964.22
2023-01-27T20:49:27.286Z,99972.97
2023-01-27T20:51:30.315Z,99973.09
2023-01-27T20:53:36.277Z,99972.28
2023-01-27T20:55:39.153Z,99965.88
2023-01-27T20:57:42.182Z,99968.09
2023-01-27T20:59:45.016Z,99963.38
2023-01-27T21:01:49.557Z,99964.78
2023-01-27T21:03:52.496Z,99972.72
2023-01-27T21:05:55.415Z,99965.78
2023-01-27T21:07:58.555Z,99976.19
2023-01-27T21:10:01.505Z,99973.09
2023-01-27T21:12:05.834Z,99970.59
2023-01-27T21:14:09.646Z,99970.59
2023-01-27T21:16:13.003Z,99967.81
2023-01-27T21:18:17.818Z,99966.44
2023-01-27T21:20:20.777Z,99961.56
2023-01-27T21:22:23.870Z,99963.78
2023-01-27T21:24:27.127Z,99963.66
2023-01-27T21:26:30.461Z,99966.31
2023-01-27T21:28:34.059Z,99969.22
2023-01-27T21:30:37.004Z,99959.81
2023-01-27T21:32:39.948Z,99969.75
2023-01-27T21:34:44.355Z,99967.00
2023-01-27T21:36:47.316Z,99966.00
2023-01-27T21:38:57.258Z,99968.13
2023-01-27T21:41:04.945Z,99972.44
2023-01-27T21:43:28.396Z,99972.03
2023-01-27T21:45:31.417Z,99968.97
2023-01-27T21:47:34.306Z,99963.56
2023-01-27T21:49:58.756Z,99968.69
2023-01-27T21:52:03.329Z,99960.91
2023-01-27T21:54:06.235Z,99957.00
2023-01-27T21:56:10.755Z,99962.84
2023-01-27T21:58:13.655Z,99961.06
2023-01-27T22:00:18.842Z,99964.25
2023-01-27T22:02:22.035Z,99955.78
2023-01-27T22:04:25.093Z,99956.88
2023-01-27T22:06:27.927Z,99953.84
2023-01-27T22:08:32.531Z,99956.03
2023-01-27T22:10:35.438Z,99957.72
2023-01-27T22:12:38.396Z,99952.84
2023-01-27T22:14:41.497Z,99953.69
2023-01-27T22:16:44.538Z,99959.53
2023-01-27T22:18:47.356Z,99951.31
2023-01-27T22:20:50.358Z,99944.25
2023-01-27T22:22:53.248Z,99934.38
2023-01-27T22:24:57.654Z,99944.25
2023-01-27T22:27:00.675Z,99944.50
2023-01-27T22:29:03.875Z,99939.78
2023-01-27T22:31:06.996Z,99939.50
2023-01-27T22:33:10.223Z,99941.75
2023-01-27T22:35:14.372Z,99941.28
2023-01-27T22:37:17.729Z,99941.28
2023-01-27T22:39:20.762Z,99942.59
2023-01-27T22:41:25.296Z,99944.09
2023-01-27T22:43:28.117Z,99942.84
2023-01-27T22:45:31.223Z,99938.00
2023-01-27T22:47:34.131Z,99940.91
2023-01-27T22:49:37.115Z,99942.84
2023-01-27T22:51:40.275Z,99940.75
2023-01-27T22:53:43.141Z,99935.91
2023-01-27T22:55:46.034Z,99948.00
2023-01-27T22:57:50.395Z,99938.41
2023-01-27T22:59:53.245Z,99937.00
2023-01-27T23:01:56.161Z,99940.06
2023-01-27T23:03:59.178Z,99931.03
2023-01-27T23:06:04.746Z,99932.56
2023-01-27T23:08:07.630Z,99930.91
2023-01-27T23:10:11.446Z,99934.78
2023-01-27T23:12:14.647Z,99933.38
2023-01-27T23:14:19.315Z,99926.31
2023-01-27T23:16:24.446Z,99925.44
2023-01-27T23:18:27.676Z,99926.28
2023-01-27T23:20:30.746Z,99921.84
2023-01-27T23:22:33.762Z,99920.47
2023-01-27T23:24:36.760Z,99921.00
2023-01-27T23:26:39.917Z,99912.94
2023-01-27T23:28:43.003Z,99915.03
2023-01-27T23:30:49.894Z,99915.31
2023-01-27T23:32:54.675Z,99919.63
2023-01-27T23:34:57.596Z,99915.56
2023-01-27T23:37:00.478Z,99913.50
2023-01-27T23:39:03.585Z,99920.44
2023-01-27T23:41:08.154Z,99916.84
2023-01-27T23:43:11.337Z,99920.72
2023-01-27T23:45:14.718Z,99919.22
2023-01-27T23:47:19.355Z,99913.53
2023-01-27T23:49:22.438Z,99923.09
2023-01-27T23:51:25.395Z,99916.16
2023-01-27T23:53:28.687Z,99914.22
2023-01-27T23:55:31.635Z,99918.66
2023-01-27T23:57:34.515Z,99926.13
2023-01-27T23:59:37.576Z,99929.78
